Time;durP1;ratioP1;P1;durP2;ratioP2;P2;SDS_P1;SDS_P2;PMS_P1;PMS_P2;Temp;Humidity;BMP_temperature;BMP_pressure;BME280_temperature;BME280_humidity;BME280_pressure;Samples;Min_cycle;Max_cycle;Signal;HPM_P1;HPM_P2
2022/02/26 00:00:08;;;;;;;11.98;5.80;;;6.50;63.80;;;;;;5070841;28;20494;-79
2022/02/26 00:02:34;;;;;;;12.57;5.65;;;6.40;63.70;;;;;;5088374;28;20032;-80
2022/02/26 00:05:00;;;;;;;9.25;4.55;;;6.40;63.70;;;;;;5079533;28;20367;-79
2022/02/26 00:07:26;;;;;;;12.45;4.57;;;6.40;63.70;;;;;;5089064;28;20028;-78
2022/02/26 00:09:52;;;;;;;9.85;4.80;;;6.30;63.50;;;;;;5070906;28;20448;-78
2022/02/26 00:12:18;;;;;;;9.32;4.50;;;6.30;63.60;;;;;;5088676;28;20020;-79
2022/02/26 00:14:44;;;;;;;8.43;3.90;;;6.30;63.60;;;;;;5070378;28;20041;-78
2022/02/26 00:17:10;;;;;;;7.50;4.05;;;6.20;63.40;;;;;;5053780;28;20036;-79
2022/02/26 00:19:36;;;;;;;8.75;3.90;;;6.20;63.50;;;;;;5040020;28;20039;-78
2022/02/26 00:22:03;;;;;;;9.70;3.92;;;6.20;63.50;;;;;;5067924;28;20029;-79
2022/02/26 00:24:30;;;;;;;10.80;4.10;;;6.20;63.50;;;;;;5067675;28;20039;-79
2022/02/26 00:26:56;;;;;;;12.85;4.57;;;6.10;63.30;;;;;;5069203;28;20059;-78
2022/02/26 00:29:22;;;;;;;12.43;4.15;;;6.10;63.30;;;;;;5050436;28;20120;-79
2022/02/26 00:31:48;;;;;;;11.55;5.00;;;6.10;63.40;;;;;;5050442;28;20119;-79
2022/02/26 00:34:14;;;;;;;12.52;5.20;;;6.00;63.20;;;;;;5050575;28;20029;-79
2022/02/26 00:36:40;;;;;;;11.25;4.25;;;6.00;63.20;;;;;;5068322;28;20020;-79
2022/02/26 00:39:06;;;;;;;7.53;3.67;;;6.00;63.20;;;;;;5077769;28;20217;-79
2022/02/26 00:41:32;;;;;;;9.43;3.90;;;6.00;63.20;;;;;;5088668;28;20114;-79
2022/02/26 00:43:58;;;;;;;9.07;3.80;;;6.00;63.20;;;;;;5088248;28;20534;-80
2022/02/26 00:46:24;;;;;;;8.90;3.28;;;5.90;63.00;;;;;;5088371;28;20249;-79
2022/02/26 00:51:36;;;;;;;7.68;3.05;;;5.90;63.00;;;;;;5067994;28;20052;-80
2022/02/26 00:54:02;;;;;;;9.50;3.67;;;5.80;62.80;;;;;;5068089;28;20021;-80
2022/02/26 00:56:28;;;;;;;10.48;4.28;;;5.80;62.80;;;;;;5067934;28;20036;-78
2022/02/26 00:58:55;;;;;;;9.30;3.20;;;5.80;62.80;;;;;;5034390;28;20074;-81
2022/02/26 01:01:22;;;;;;;8.82;3.10;;;5.80;62.80;;;;;;5052584;28;20067;-80
2022/02/26 01:03:48;;;;;;;10.07;3.45;;;5.80;62.90;;;;;;5069374;28;20028;-80
2022/02/26 01:06:14;;;;;;;6.65;3.10;;;5.70;62.70;;;;;;5050835;28;20068;-81
2022/02/26 01:08:41;;;;;;;14.13;3.30;;;5.70;62.70;;;;;;5067816;28;20024;-80
2022/02/26 01:11:07;;;;;;;11.57;3.00;;;5.70;62.70;;;;;;5068059;28;20052;-81
2022/02/26 01:13:33;;;;;;;8.65;2.92;;;5.70;62.80;;;;;;5068360;28;20095;-81
2022/02/26 01:15:59;;;;;;;10.77;3.58;;;5.70;62.80;;;;;;5065948;28;20078;-81
2022/02/26 01:18:25;;;;;;;9.25;3.80;;;5.60;62.60;;;;;;5071342;28;20111;-81
2022/02/26 01:20:52;;;;;;;9.15;3.08;;;5.60;62.60;;;;;;5087570;28;20127;-80
2022/02/26 01:23:18;;;;;;;11.18;3.10;;;5.60;62.60;;;;;;5087999;28;20029;-81
2022/02/26 01:25:44;;;;;;;16.65;4.72;;;5.60;62.60;;;;;;5078323;28;20295;-80
2022/02/26 01:28:10;;;;;;;11.35;3.17;;;5.60;62.70;;;;;;5087300;28;20028;-81
2022/02/26 01:30:36;;;;;;;14.73;4.13;;;5.60;62.70;;;;;;5087450;28;20050;-81
2022/02/26 01:33:02;;;;;;;9.50;3.05;;;5.60;62.70;;;;;;5069503;28;20035;-82
2022/02/26 01:35:29;;;;;;;14.57;3.35;;;5.60;62.70;;;;;;5087891;28;20403;-81
2022/02/26 01:37:55;;;;;;;8.90;2.35;;;5.50;62.50;;;;;;5088066;28;20031;-82
2022/02/26 01:40:21;;;;;;;14.32;3.67;;;5.60;62.70;;;;;;5069129;28;20032;-80
2022/02/26 01:42:47;;;;;;;10.18;2.97;;;5.50;62.50;;;;;;5087668;28;20059;-81
2022/02/26 01:45:16;;;;;;;7.70;2.78;;;5.50;62.50;;;;;;5086990;28;20376;-81
2022/02/26 01:47:42;;;;;;;9.88;3.38;;;5.50;62.50;;;;;;5087478;28;20387;-82
2022/02/26 01:50:11;;;;;;;13.82;3.20;;;5.50;62.50;;;;;;5052308;28;20028;-82
2022/02/26 01:52:37;;;;;;;11.32;3.58;;;5.50;62.50;;;;;;5052485;28;20131;-82
2022/02/26 01:55:04;;;;;;;7.05;2.90;;;5.50;62.50;;;;;;5069667;28;20081;-82
2022/02/26 01:57:30;;;;;;;5.35;2.47;;;5.50;62.50;;;;;;5087361;28;20027;-81
2022/02/26 01:59:56;;;;;;;7.78;2.53;;;5.40;62.40;;;;;;5086817;28;20579;-81
2022/02/26 02:02:22;;;;;;;9.15;2.58;;;5.40;62.40;;;;;;5060441;28;20028;-82
2022/02/26 02:04:48;;;;;;;9.68;2.53;;;5.40;62.40;;;;;;5087091;28;20114;-82
2022/02/26 02:07:15;;;;;;;8.88;2.83;;;5.40;62.40;;;;;;5087107;28;20140;-82
2022/02/26 02:09:42;;;;;;;9.43;2.92;;;5.40;62.40;;;;;;5072844;28;20032;-83
2022/02/26 02:12:09;;;;;;;6.45;2.70;;;5.40;62.40;;;;;;5066756;28;20041;-83
2022/02/26 02:14:36;;;;;;;10.15;3.53;;;5.40;62.40;;;;;;5049072;28;20020;-81
2022/02/26 02:17:03;;;;;;;7.95;2.55;;;5.40;62.40;;;;;;5066539;28;20039;-80
2022/02/26 02:19:29;;;;;;;7.35;3.17;;;5.30;62.30;;;;;;5066472;28;20029;-80
2022/02/26 02:21:55;;;;;;;15.13;3.67;;;5.30;62.30;;;;;;5066873;28;20123;-79
2022/02/26 02:24:21;;;;;;;12.25;3.45;;;5.30;62.30;;;;;;5066650;28;20016;-79
2022/02/26 02:26:50;;;;;;;9.60;2.80;;;5.30;62.30;;;;;;5068957;28;20033;-81
2022/02/26 02:29:16;;;;;;;12.52;2.80;;;5.30;62.40;;;;;;5070794;28;20025;-80
2022/02/26 02:31:42;;;;;;;6.50;2.25;;;5.30;62.40;;;;;;5052347;28;20074;-81
2022/02/26 02:34:08;;;;;;;11.48;3.00;;;5.30;62.40;;;;;;5070932;28;20116;-80
2022/02/26 02:36:42;;;;;;;9.98;2.65;;;5.20;62.20;;;;;;5026684;28;20032;-80
2022/02/26 02:39:10;;;;;;;7.30;3.33;;;5.30;62.50;;;;;;5052602;28;20025;-81
2022/02/26 02:41:36;;;;;;;8.32;2.88;;;5.20;62.20;;;;;;5085916;28;20035;-80
2022/02/26 02:44:03;;;;;;;7.63;2.10;;;5.20;62.30;;;;;;5090570;28;20025;-80
2022/02/26 02:46:29;;;;;;;10.77;2.50;;;5.20;62.30;;;;;;5063230;28;20044;-80
2022/02/26 02:48:55;;;;;;;10.75;2.83;;;5.20;62.30;;;;;;5062893;28;20055;-80
2022/02/26 02:51:21;;;;;;;7.22;2.08;;;5.20;62.30;;;;;;5071820;28;20100;-80
2022/02/26 02:53:48;;;;;;;10.65;2.83;;;5.20;62.30;;;;;;5073832;28;20039;-79
2022/02/26 02:56:14;;;;;;;6.65;2.20;;;5.20;62.30;;;;;;5072825;28;20033;-79
2022/02/26 02:58:40;;;;;;;9.82;2.78;;;5.20;62.30;;;;;;5074082;28;20032;-80
2022/02/26 03:01:06;;;;;;;7.55;2.38;;;5.20;62.30;;;;;;5073745;28;20124;-80
2022/02/26 03:03:32;;;;;;;6.32;2.20;;;5.20;62.30;;;;;;5055670;28;20115;-80
2022/02/26 03:05:58;;;;;;;12.85;3.60;;;5.20;62.30;;;;;;5057359;28;20064;-80
2022/02/26 03:08:24;;;;;;;13.38;3.90;;;5.10;62.20;;;;;;5093832;28;20043;-80
2022/02/26 03:10:52;;;;;;;12.20;2.47;;;5.10;62.20;;;;;;5093652;28;20035;-79
2022/02/26 03:13:21;;;;;;;8.40;2.83;;;5.10;62.20;;;;;;5093603;28;20071;-79
2022/02/26 03:15:51;;;;;;;10.15;2.85;;;5.10;62.20;;;;;;5075518;28;20036;-80
2022/02/26 03:18:18;;;;;;;11.10;2.40;;;5.10;62.20;;;;;;5077688;28;20024;-80
2022/02/26 03:20:44;;;;;;;15.20;3.42;;;5.10;62.20;;;;;;5095777;28;20469;-80
2022/02/26 03:23:11;;;;;;;10.75;3.88;;;5.10;62.20;;;;;;5086137;28;20028;-80
2022/02/26 03:25:37;;;;;;;7.30;2.53;;;5.10;62.20;;;;;;5095004;28;20062;-80
2022/02/26 03:28:04;;;;;;;9.68;2.75;;;5.10;62.20;;;;;;5093418;28;20115;-80
2022/02/26 03:30:31;;;;;;;8.73;2.53;;;5.00;62.10;;;;;;5076268;28;20032;-79
2022/02/26 03:32:57;;;;;;;11.05;4.30;;;5.10;62.20;;;;;;5093910;28;20059;-79
2022/02/26 03:35:24;;;;;;;9.10;2.63;;;5.00;62.10;;;;;;5093497;28;20016;-79
2022/02/26 03:37:50;;;;;;;9.25;2.42;;;5.00;62.10;;;;;;5074469;28;20032;-79
2022/02/26 03:40:17;;;;;;;12.50;2.72;;;5.00;62.60;;;;;;5093463;28;20089;-79
2022/02/26 03:42:43;;;;;;;8.20;2.42;;;5.00;62.10;;;;;;5075189;28;20024;-78
2022/02/26 03:45:11;;;;;;;8.32;2.97;;;5.00;62.10;;;;;;5092807;28;20047;-78
2022/02/26 03:47:37;;;;;;;9.40;2.75;;;5.00;62.10;;;;;;5074609;28;20376;-78
2022/02/26 03:50:04;;;;;;;5.93;2.00;;;5.00;62.20;;;;;;5092815;28;20278;-79
2022/02/26 03:52:31;;;;;;;13.55;2.78;;;5.00;62.20;;;;;;5093266;28;20386;-80
2022/02/26 03:54:57;;;;;;;13.18;3.45;;;4.90;62.00;;;;;;5074953;28;20072;-80
2022/02/26 03:57:23;;;;;;;7.45;2.05;;;5.00;62.20;;;;;;5092943;28;20028;-80
2022/02/26 03:59:49;;;;;;;9.07;2.75;;;5.00;62.20;;;;;;5065160;28;20039;-80
2022/02/26 04:02:15;;;;;;;9.32;3.38;;;5.00;62.20;;;;;;5074641;28;20441;-80
2022/02/26 04:04:41;;;;;;;11.38;2.67;;;5.00;62.20;;;;;;5092922;28;20389;-79
2022/02/26 04:07:07;;;;;;;12.77;2.80;;;5.00;62.20;;;;;;5092826;28;20559;-79
2022/02/26 04:09:34;;;;;;;10.05;3.28;;;5.00;62.10;;;;;;5074580;28;20028;-79
2022/02/26 04:12:00;;;;;;;7.00;2.85;;;5.00;62.20;;;;;;5092905;28;20062;-80
2022/02/26 04:14:26;;;;;;;7.43;2.42;;;5.00;62.10;;;;;;5074332;28;20070;-80
2022/02/26 04:16:52;;;;;;;10.00;2.63;;;5.00;62.10;;;;;;5092651;28;20028;-80
2022/02/26 04:19:18;;;;;;;8.95;2.92;;;5.00;62.10;;;;;;5092213;28;20032;-79
2022/02/26 04:21:44;;;;;;;7.35;2.92;;;5.00;62.10;;;;;;5092410;28;20231;-79
2022/02/26 04:24:10;;;;;;;9.35;2.20;;;5.00;62.10;;;;;;5092033;28;20032;-79
2022/02/26 04:26:36;;;;;;;8.43;2.50;;;5.00;62.10;;;;;;5092258;28;20043;-79
2022/02/26 04:29:03;;;;;;;13.05;3.20;;;5.00;62.10;;;;;;5074098;28;20035;-80
2022/02/26 04:31:29;;;;;;;10.50;3.58;;;5.00;62.10;;;;;;5073730;28;20028;-79
2022/02/26 04:33:55;;;;;;;7.32;2.45;;;5.00;62.10;;;;;;5091956;28;20074;-79
2022/02/26 04:36:22;;;;;;;8.35;2.63;;;5.00;62.10;;;;;;5074051;28;20059;-78
2022/02/26 04:38:48;;;;;;;7.95;2.95;;;5.00;62.10;;;;;;5063900;28;20071;-78
2022/02/26 04:41:14;;;;;;;8.48;2.22;;;5.00;62.10;;;;;;5092362;28;20036;-78
2022/02/26 04:43:43;;;;;;;7.72;2.72;;;5.00;62.10;;;;;;5091869;28;20042;-78
2022/02/26 04:46:09;;;;;;;10.00;2.42;;;5.00;62.10;;;;;;5091730;28;20040;-79
2022/02/26 04:48:36;;;;;;;9.52;2.38;;;5.00;62.10;;;;;;5073258;28;20040;-80
2022/02/26 04:51:06;;;;;;;5.97;2.67;;;5.00;62.10;;;;;;5073590;28;20024;-79
2022/02/26 04:53:32;;;;;;;11.02;3.10;;;5.00;62.10;;;;;;5073793;28;20032;-79
2022/02/26 04:55:58;;;;;;;11.07;3.10;;;5.00;62.10;;;;;;5073455;28;20035;-79
2022/02/26 04:58:24;;;;;;;7.10;2.15;;;5.00;62.10;;;;;;5091846;28;20578;-79
2022/02/26 05:00:51;;;;;;;10.30;2.78;;;5.00;62.10;;;;;;5075162;28;20483;-79
2022/02/26 05:03:17;;;;;;;6.20;2.33;;;5.00;62.10;;;;;;5073728;28;20020;-79
2022/02/26 05:05:43;;;;;;;8.27;2.72;;;5.00;62.20;;;;;;5073934;28;20089;-79
2022/02/26 05:08:09;;;;;;;10.85;2.83;;;5.00;62.20;;;;;;5093267;28;20028;-79
2022/02/26 05:10:37;;;;;;;10.63;2.58;;;4.90;62.00;;;;;;5092355;28;20035;-79
2022/02/26 05:13:04;;;;;;;8.73;2.63;;;4.90;62.10;;;;;;5072371;28;20020;-79
2022/02/26 05:15:30;;;;;;;8.57;2.90;;;4.90;62.10;;;;;;5051840;28;20138;-79
2022/02/26 05:17:56;;;;;;;8.85;3.50;;;5.00;62.30;;;;;;5082605;28;20032;-79
2022/02/26 05:20:22;;;;;;;7.25;2.63;;;4.90;62.10;;;;;;5073085;28;20067;-81
2022/02/26 05:22:48;;;;;;;9.75;2.45;;;5.00;62.30;;;;;;5072802;28;20039;-80
2022/02/26 05:25:14;;;;;;;10.48;2.65;;;5.00;62.30;;;;;;5090568;28;20032;-80
2022/02/26 05:27:40;;;;;;;11.10;2.67;;;5.00;62.30;;;;;;5090849;28;20278;-80
2022/02/26 05:30:08;;;;;;;10.65;3.72;;;5.00;62.30;;;;;;5072636;28;20518;-78
2022/02/26 05:32:34;;;;;;;10.85;2.20;;;5.00;62.30;;;;;;5090599;28;20039;-79
2022/02/26 05:35:00;;;;;;;14.30;3.80;;;5.00;62.20;;;;;;5073263;28;20052;-80
2022/02/26 05:37:26;;;;;;;11.25;4.65;;;5.00;62.20;;;;;;5092692;28;20379;-79
2022/02/26 05:39:52;;;;;;;10.90;3.22;;;5.10;62.40;;;;;;5074782;28;20039;-80
2022/02/26 05:42:18;;;;;;;9.57;3.15;;;5.10;62.40;;;;;;5092094;28;20107;-78
2022/02/26 05:44:44;;;;;;;7.30;2.10;;;5.00;62.20;;;;;;5072895;28;20123;-79
2022/02/26 05:47:10;;;;;;;16.52;3.05;;;5.10;62.40;;;;;;5090546;28;20134;-78
2022/02/26 05:49:37;;;;;;;11.48;2.78;;;5.10;62.40;;;;;;5067291;28;20533;-79
2022/02/26 05:52:03;;;;;;;9.50;2.80;;;5.10;62.40;;;;;;5066703;28;20121;-78
2022/02/26 05:54:30;;;;;;;9.88;3.00;;;5.10;62.40;;;;;;5039997;28;20080;-80
2022/02/26 05:56:56;;;;;;;10.05;2.92;;;5.10;62.50;;;;;;5067283;28;20056;-80
2022/02/26 05:59:22;;;;;;;13.40;3.30;;;5.00;62.30;;;;;;5052387;28;20028;-78
2022/02/26 06:01:48;;;;;;;10.38;3.08;;;5.00;62.30;;;;;;5066183;28;20035;-79
2022/02/26 06:04:14;;;;;;;8.27;2.30;;;5.00;62.40;;;;;;5048718;28;20144;-78
2022/02/26 06:06:40;;;;;;;8.00;2.90;;;5.00;62.40;;;;;;5049144;28;20040;-79
2022/02/26 06:09:06;;;;;;;8.35;3.03;;;5.00;62.40;;;;;;5049177;28;20294;-80
2022/02/26 06:11:32;;;;;;;8.27;3.28;;;5.00;62.40;;;;;;5066597;28;20040;-81
2022/02/26 06:13:59;;;;;;;11.73;2.97;;;5.00;62.50;;;;;;5066567;28;20035;-80
2022/02/26 06:16:25;;;;;;;10.70;3.40;;;5.00;62.50;;;;;;5066563;28;20568;-78
2022/02/26 06:18:51;;;;;;;10.00;3.45;;;5.00;62.50;;;;;;5064252;28;20057;-78
2022/02/26 06:21:17;;;;;;;15.90;3.95;;;5.00;62.50;;;;;;5069261;28;20028;-80
2022/02/26 06:23:43;;;;;;;10.52;3.17;;;4.90;62.30;;;;;;5086828;28;20024;-81
2022/02/26 06:26:09;;;;;;;10.65;2.50;;;5.00;62.50;;;;;;5077771;28;20040;-79
2022/02/26 06:28:35;;;;;;;9.82;2.90;;;5.00;62.60;;;;;;5084935;28;20043;-81
2022/02/26 06:31:02;;;;;;;10.98;3.53;;;4.90;62.40;;;;;;5065636;28;20052;-81
2022/02/26 06:33:28;;;;;;;9.20;2.97;;;4.90;62.30;;;;;;5065573;28;20021;-82
2022/02/26 06:35:53;;;;;;;10.70;2.70;;;4.90;62.40;;;;;;5065375;28;20067;-79
2022/02/26 06:38:20;;;;;;;10.77;2.83;;;4.90;62.40;;;;;;5073983;28;20028;-81
2022/02/26 06:40:46;;;;;;;6.40;3.17;;;4.90;62.40;;;;;;5086959;28;20043;-81
2022/02/26 06:43:12;;;;;;;7.30;2.60;;;4.90;62.50;;;;;;5080681;28;20025;-80
2022/02/26 06:45:38;;;;;;;7.85;2.97;;;4.90;62.50;;;;;;5048852;28;20036;-81
2022/02/26 06:48:04;;;;;;;8.98;3.50;;;4.90;62.50;;;;;;5071507;28;20370;-78
2022/02/26 06:50:33;;;;;;;10.40;2.60;;;4.80;62.30;;;;;;5051317;28;20032;-82
2022/02/26 06:52:59;;;;;;;8.85;2.92;;;4.80;62.30;;;;;;5052067;28;20027;-81
2022/02/26 06:55:25;;;;;;;8.65;2.55;;;4.80;62.30;;;;;;5068930;28;20031;-82
2022/02/26 06:57:51;;;;;;;11.55;3.15;;;4.80;62.30;;;;;;5077652;28;20115;-82
2022/02/26 07:00:18;;;;;;;8.43;2.88;;;4.80;62.30;;;;;;5068447;28;20127;-82
2022/02/26 07:02:44;;;;;;;8.75;3.10;;;4.80;62.30;;;;;;5080837;28;20028;-80
2022/02/26 07:05:12;;;;;;;13.00;4.32;;;4.80;62.30;;;;;;5067024;28;20036;-82
2022/02/26 07:07:38;;;;;;;7.28;2.60;;;4.80;62.30;;;;;;5057036;28;20024;-87
2022/02/26 07:10:05;;;;;;;9.68;3.38;;;4.80;62.30;;;;;;5072631;28;20050;-81
2022/02/26 07:12:31;;;;;;;8.23;2.60;;;4.80;62.40;;;;;;5080198;28;20028;-81
2022/02/26 07:14:57;;;;;;;9.85;2.42;;;4.80;63.10;;;;;;5071417;28;20359;-83
2022/02/26 07:17:23;;;;;;;10.77;2.78;;;4.90;63.20;;;;;;5077453;28;20031;-80
2022/02/26 07:19:49;;;;;;;9.68;3.42;;;5.00;63.50;;;;;;5070508;28;20266;-80
2022/02/26 07:22:15;;;;;;;10.73;2.95;;;5.10;63.60;;;;;;5089893;28;20804;-83
2022/02/26 07:24:41;;;;;;;8.90;2.75;;;5.20;63.60;;;;;;5089561;28;20486;-82
2022/02/26 07:27:07;;;;;;;8.75;2.50;;;5.20;63.60;;;;;;5074449;28;20475;-78
2022/02/26 07:29:33;;;;;;;11.52;3.03;;;5.20;64.00;;;;;;5052333;28;20024;-83
2022/02/26 07:31:59;;;;;;;6.00;2.13;;;5.20;63.50;;;;;;5084996;28;20043;-77
2022/02/26 07:34:25;;;;;;;7.13;3.15;;;5.20;63.50;;;;;;5086608;28;20031;-79
2022/02/26 07:36:51;;;;;;;12.27;3.85;;;5.20;63.50;;;;;;5079102;28;20029;-80
2022/02/26 07:39:17;;;;;;;7.68;2.40;;;5.30;64.20;;;;;;5059154;28;20463;-81
2022/02/26 07:41:43;;;;;;;9.27;2.50;;;5.20;63.50;;;;;;5083461;28;20035;-81
2022/02/26 07:44:09;;;;;;;7.60;3.03;;;5.30;63.70;;;;;;5075606;28;20471;-83
2022/02/26 07:46:35;;;;;;;5.32;2.25;;;5.30;63.70;;;;;;5067066;28;20117;-82
2022/02/26 07:49:01;;;;;;;9.43;2.50;;;5.30;63.70;;;;;;5085399;28;20116;-81
2022/02/26 07:51:27;;;;;;;7.70;2.50;;;5.30;63.70;;;;;;5081931;28;20683;-82
2022/02/26 07:53:53;;;;;;;8.43;2.95;;;5.30;63.70;;;;;;5068402;28;20472;-85
2022/02/26 07:56:19;;;;;;;8.95;2.33;;;5.30;63.70;;;;;;5065709;28;20021;-78
2022/02/26 07:58:46;;;;;;;10.65;3.00;;;5.40;63.80;;;;;;5052916;28;20064;-76
2022/02/26 08:01:12;;;;;;;6.15;2.03;;;5.40;63.70;;;;;;5082446;28;20029;-78
2022/02/26 08:03:38;;;;;;;10.30;3.00;;;5.40;63.70;;;;;;5072879;28;20429;-80
2022/02/26 08:06:04;;;;;;;6.32;2.40;;;5.40;63.60;;;;;;5083642;28;20040;-78
2022/02/26 08:08:30;;;;;;;9.77;2.60;;;5.50;63.70;;;;;;5063842;28;20074;-77
2022/02/26 08:10:56;;;;;;;6.45;3.50;;;5.50;63.60;;;;;;5089233;28;20499;-78
2022/02/26 08:13:22;;;;;;;9.80;3.15;;;5.60;63.80;;;;;;5089486;28;20465;-79
2022/02/26 08:15:49;;;;;;;7.05;2.35;;;5.60;63.70;;;;;;5070953;28;20070;-78
2022/02/26 08:18:15;;;;;;;9.70;2.80;;;5.70;63.80;;;;;;5071108;28;20028;-77
2022/02/26 08:20:41;;;;;;;6.55;2.30;;;5.70;63.70;;;;;;5088742;28;20028;-78
2022/02/26 08:23:07;;;;;;;8.25;2.95;;;5.70;63.60;;;;;;5088483;28;20079;-77
2022/02/26 08:25:34;;;;;;;7.63;2.40;;;5.80;63.70;;;;;;5087947;28;20044;-80
2022/02/26 08:28:00;;;;;;;7.68;2.25;;;5.90;63.90;;;;;;5070525;28;20126;-77
2022/02/26 08:30:26;;;;;;;8.05;2.95;;;5.90;63.80;;;;;;5041254;28;20553;-75
2022/02/26 08:32:52;;;;;;;8.52;2.20;;;5.90;63.70;;;;;;5054478;28;20120;-76
2022/02/26 08:35:19;;;;;;;7.22;2.28;;;6.00;63.90;;;;;;5071057;28;20032;-77
2022/02/26 08:37:46;;;;;;;9.90;2.40;;;6.10;64.20;;;;;;5051523;28;20055;-76
2022/02/26 08:40:14;;;;;;;11.65;3.03;;;6.20;64.30;;;;;;5063037;28;20070;-76
2022/02/26 08:42:40;;;;;;;5.50;2.08;;;6.30;64.40;;;;;;5079235;28;20082;-76
2022/02/26 08:45:07;;;;;;;15.02;3.47;;;6.40;64.40;;;;;;5067526;28;20384;-77
2022/02/26 08:47:33;;;;;;;6.70;2.58;;;6.40;64.30;;;;;;5066606;28;20052;-76
2022/02/26 08:50:01;;;;;;;4.85;2.28;;;6.50;64.40;;;;;;5066912;28;20028;-76
2022/02/26 08:52:27;;;;;;;8.25;2.60;;;6.60;64.50;;;;;;5033585;28;20111;-76
2022/02/26 08:54:55;;;;;;;11.75;2.42;;;6.70;64.60;;;;;;5049391;28;20029;-77
2022/02/26 08:57:21;;;;;;;8.93;2.38;;;6.80;64.60;;;;;;5049861;28;20480;-77
2022/02/26 08:59:47;;;;;;;8.40;2.30;;;6.90;64.60;;;;;;5067534;28;20020;-76
2022/02/26 09:02:13;;;;;;;7.60;2.28;;;7.00;64.70;;;;;;5049979;28;20036;-77
2022/02/26 09:04:39;;;;;;;5.78;2.17;;;7.10;64.70;;;;;;5067584;28;20072;-76
2022/02/26 09:07:06;;;;;;;13.57;2.78;;;7.20;64.60;;;;;;5067446;28;20534;-76
2022/02/26 09:09:33;;;;;;;7.70;2.28;;;7.30;64.60;;;;;;5049653;28;20020;-77
2022/02/26 09:11:59;;;;;;;12.50;2.10;;;7.40;64.60;;;;;;5068047;28;20036;-77
2022/02/26 09:14:25;;;;;;;9.75;2.50;;;7.50;64.70;;;;;;5067549;28;20416;-76
2022/02/26 09:16:51;;;;;;;5.72;2.08;;;7.50;64.50;;;;;;5074191;28;20042;-77
2022/02/26 09:19:17;;;;;;;6.57;1.85;;;7.70;64.70;;;;;;5079105;28;20028;-76
2022/02/26 09:21:43;;;;;;;9.02;2.05;;;7.80;64.70;;;;;;5087544;28;20035;-77
2022/02/26 09:24:09;;;;;;;4.03;2.05;;;7.90;64.70;;;;;;5069802;28;20390;-77
2022/02/26 09:26:35;;;;;;;7.90;2.90;;;8.00;64.80;;;;;;5085774;28;20150;-76
2022/02/26 09:29:02;;;;;;;7.97;1.98;;;8.00;64.60;;;;;;5052151;28;20035;-76
2022/02/26 09:31:28;;;;;;;11.45;2.00;;;8.20;64.80;;;;;;5069471;28;20114;-77
2022/02/26 09:33:54;;;;;;;7.18;2.05;;;8.20;64.70;;;;;;5069694;28;20386;-76
2022/02/26 09:36:20;;;;;;;9.20;3.53;;;8.30;64.70;;;;;;5086279;28;20460;-77
2022/02/26 09:38:48;;;;;;;8.18;2.28;;;8.40;64.70;;;;;;5068656;28;20208;-76
2022/02/26 09:41:14;;;;;;;8.05;2.53;;;8.50;64.70;;;;;;5069528;28;20039;-76
2022/02/26 09:43:40;;;;;;;8.38;2.13;;;8.60;64.70;;;;;;5087699;28;20054;-77
2022/02/26 09:46:07;;;;;;;7.28;1.92;;;8.70;64.70;;;;;;5069569;28;20067;-76
2022/02/26 09:48:35;;;;;;;6.60;2.17;;;8.80;64.70;;;;;;5087549;28;20513;-76
2022/02/26 09:51:01;;;;;;;7.90;1.80;;;9.00;64.80;;;;;;5069735;28;20089;-76
2022/02/26 09:53:27;;;;;;;8.88;2.20;;;9.10;64.80;;;;;;5087354;28;20111;-75
2022/02/26 09:55:55;;;;;;;6.47;1.70;;;9.10;64.60;;;;;;5087628;28;20081;-76
2022/02/26 09:58:21;;;;;;;6.82;1.80;;;9.20;64.60;;;;;;5069129;28;20138;-76
2022/02/26 10:00:48;;;;;;;7.30;2.60;;;9.40;64.80;;;;;;5068966;28;20089;-76
2022/02/26 10:03:29;;;;;;;10.65;3.08;;;9.40;64.60;;;;;;5087567;28;20544;-77
2022/02/26 10:06:09;;;;;;;8.38;2.20;;;9.50;64.60;;;;;;5087188;28;20047;-77
2022/02/26 10:08:46;;;;;;;5.55;1.60;;;9.60;64.60;;;;;;5078082;28;20034;-76
2022/02/26 10:11:34;;;;;;;9.02;2.22;;;9.70;64.60;;;;;;5066936;28;20047;-77
2022/02/26 10:14:11;;;;;;;7.43;2.03;;;9.70;64.50;;;;;;5032452;28;20090;-76
2022/02/26 10:16:51;;;;;;;10.02;2.25;;;9.80;64.60;;;;;;5066648;28;20048;-76
2022/02/26 10:19:19;;;;;;;9.55;1.80;;;9.90;64.60;;;;;;5067952;28;20417;-77
2022/02/26 10:21:45;;;;;;;6.95;2.72;;;10.00;64.60;;;;;;5051358;28;20043;-76
2022/02/26 10:24:13;;;;;;;6.40;1.95;;;10.10;64.70;;;;;;5069440;28;20028;-77
2022/02/26 10:26:39;;;;;;;12.00;2.60;;;10.20;64.60;;;;;;5068283;28;20490;-76
2022/02/26 10:29:11;;;;;;;6.90;1.73;;;10.30;65.10;;;;;;5049687;28;20028;-77
2022/02/26 10:31:54;;;;;;;9.32;2.42;;;10.40;64.40;;;;;;5049761;28;20032;-76
2022/02/26 10:34:34;;;;;;;10.77;3.03;;;10.60;64.50;;;;;;5049449;28;20293;-76
2022/02/26 10:37:15;;;;;;;7.40;1.92;;;10.70;64.40;;;;;;5048641;28;20032;-76
2022/02/26 10:39:54;;;;;;;8.57;2.40;;;10.80;64.30;;;;;;5049034;28;20093;-76
2022/02/26 10:42:24;;;;;;;8.73;2.97;;;10.90;64.30;;;;;;5066872;28;20063;-76
2022/02/26 10:44:59;;;;;;;9.60;2.40;;;11.10;64.30;;;;;;5048257;28;20040;-76
2022/02/26 10:47:30;;;;;;;11.05;2.10;;;11.20;64.30;;;;;;5068341;28;20052;-76
2022/02/26 10:49:57;;;;;;;9.63;2.20;;;11.30;64.20;;;;;;5069713;28;20043;-77
2022/02/26 10:52:29;;;;;;;11.43;2.58;;;11.40;64.20;;;;;;5076791;28;20039;-77
2022/02/26 10:54:58;;;;;;;11.55;2.67;;;11.50;64.10;;;;;;5072461;28;20024;-77
2022/02/26 10:57:31;;;;;;;9.27;4.00;;;11.60;64.10;;;;;;5090506;28;20035;-77
2022/02/26 10:59:57;;;;;;;;;;;11.70;64.00;;;;;;5090507;28;20028;-74
2022/02/26 11:02:25;;;;;;;7.30;1.70;;;11.90;64.20;;;;;;5090396;28;19907;-76
2022/02/26 11:04:54;;;;;;;10.50;2.60;;;12.00;64.20;;;;;;5071757;28;20020;-77
2022/02/26 11:07:21;;;;;;;7.30;3.17;;;12.10;64.10;;;;;;5090824;28;20040;-77
2022/02/26 11:09:49;;;;;;;6.90;1.88;;;12.30;64.10;;;;;;5071616;28;20024;-77
2022/02/26 11:12:17;;;;;;;6.50;2.28;;;12.30;63.90;;;;;;5072484;28;20027;-77
2022/02/26 11:14:48;;;;;;;10.07;2.47;;;12.40;63.80;;;;;;5090187;28;20445;-77
2022/02/26 11:17:15;;;;;;;9.95;2.45;;;12.60;64.00;;;;;;5089977;28;20024;-77
2022/02/26 11:19:45;;;;;;;10.98;2.85;;;12.60;63.70;;;;;;5054404;28;20032;-77
2022/02/26 11:22:12;;;;;;;8.88;2.10;;;12.80;63.80;;;;;;5069932;28;20024;-77
2022/02/26 11:24:38;;;;;;;9.95;2.92;;;12.80;63.60;;;;;;5052076;28;20062;-77
2022/02/26 11:27:04;;;;;;;7.85;2.47;;;12.90;63.50;;;;;;5051617;28;20492;-77
2022/02/26 11:29:31;;;;;;;7.35;2.80;;;13.00;63.50;;;;;;5085209;28;20051;-77
2022/02/26 11:32:01;;;;;;;10.02;2.45;;;13.10;63.50;;;;;;5089481;28;20031;-77
2022/02/26 11:34:27;;;;;;;8.82;2.15;;;13.20;63.50;;;;;;5071059;28;20086;-77
2022/02/26 11:37:06;;;;;;;8.13;2.38;;;13.20;63.30;;;;;;5071484;28;20059;-77
2022/02/26 11:39:34;;;;;;;7.57;2.63;;;13.30;63.30;;;;;;5089612;28;20094;-76
2022/02/26 11:42:23;;;;;;;6.07;2.00;;;13.40;63.30;;;;;;5090238;28;20023;-77
2022/02/26 11:44:53;;;;;;;6.32;2.13;;;13.50;63.20;;;;;;5082751;28;20040;-78
2022/02/26 11:47:21;;;;;;;6.32;1.70;;;13.50;63.20;;;;;;5067873;28;20054;-78
2022/02/26 11:50:11;;;;;;;7.32;2.20;;;13.60;63.20;;;;;;5069787;28;20051;-76
2022/02/26 11:52:48;;;;;;;4.13;1.52;;;13.60;62.90;;;;;;5078069;28;20081;-76
2022/02/26 11:55:35;;;;;;;7.57;2.28;;;13.70;63.10;;;;;;5078355;28;20033;-77
2022/02/26 11:58:12;;;;;;;7.60;2.22;;;13.80;63.00;;;;;;5053654;28;20116;-79
2022/02/26 12:00:43;;;;;;;6.78;1.55;;;13.80;62.90;;;;;;5089153;28;20039;-76
2022/02/26 12:03:44;;;;;;;4.75;1.90;;;13.90;62.90;;;;;;5089081;28;20043;-78
2022/02/26 12:06:11;;;;;;;6.95;2.75;;;14.00;62.90;;;;;;5070889;28;20595;-75
2022/02/26 12:08:40;;;;;;;7.65;1.83;;;14.10;63.00;;;;;;5080421;28;20170;-75
2022/02/26 12:11:08;;;;;;;8.18;2.80;;;14.20;62.90;;;;;;5050686;28;20024;-74
2022/02/26 12:13:37;;;;;;;6.10;1.65;;;14.30;63.10;;;;;;5050878;28;20043;-77
2022/02/26 12:16:35;;;;;;;7.10;1.77;;;14.40;63.10;;;;;;5050765;28;20028;-78
2022/02/26 12:19:05;;;;;;;7.75;2.05;;;14.60;63.10;;;;;;5046707;28;20396;-76
2022/02/26 12:21:36;;;;;;;6.03;2.65;;;14.80;63.30;;;;;;5068941;28;20033;-75
2022/02/26 12:24:03;;;;;;;7.40;2.58;;;14.90;63.20;;;;;;5050615;28;20059;-77
2022/02/26 12:26:48;;;;;;;4.88;1.52;;;15.10;63.30;;;;;;5047047;28;20174;-78
2022/02/26 12:29:44;;;;;;;7.25;2.08;;;15.20;63.00;;;;;;5074473;28;20490;-77
2022/02/26 12:32:19;;;;;;;4.35;1.98;;;15.30;62.90;;;;;;5036176;28;20487;-78
2022/02/26 12:35:01;;;;;;;5.10;1.77;;;15.40;63.00;;;;;;5034166;28;20506;-77
2022/02/26 12:37:30;;;;;;;4.75;2.17;;;15.50;62.90;;;;;;5050758;28;20024;-77
2022/02/26 12:39:59;;;;;;;7.35;2.20;;;15.50;62.90;;;;;;5050671;28;20048;-78
2022/02/26 12:42:28;;;;;;;7.47;2.75;;;15.50;62.80;;;;;;5051751;28;20041;-78
2022/02/26 12:44:57;;;;;;;4.30;1.38;;;15.50;62.80;;;;;;5034838;28;20464;-78
2022/02/26 12:47:24;;;;;;;7.25;2.00;;;15.50;62.80;;;;;;5060291;28;20056;-81
2022/02/26 12:49:51;;;;;;;7.57;1.67;;;15.50;62.80;;;;;;5069781;28;20031;-80
2022/02/26 12:52:17;;;;;;;9.63;2.00;;;15.50;62.80;;;;;;5067100;28;20032;-80
2022/02/26 12:54:44;;;;;;;6.00;1.83;;;15.50;62.80;;;;;;5068563;28;20506;-79
2022/02/26 12:57:11;;;;;;;7.47;2.10;;;15.50;62.70;;;;;;5069230;28;20040;-82